.
WxDataArchive / Data Records for 2012-06-11
2012-06-10 June 2012 2012-06-12

Data Records for Monday, 11 June 2012

Time	Temp	Chill	HIndex	Humid	Dewpt	 Wind 	HiWind	WindDir	Rain 	Barom 
-----	----	-----	------	-----	-----	------	------	-------	-----	----- 
00:00	76.7	76.7	78.4	47	54.9	0	1	112	0.00	29.926 
00:05	76.5	76.5	78.3	47	54.7	0	0	---	0.00	29.926 
00:10	76.3	76.3	78.2	48	55.1	0	2	112	0.00	29.926 
00:15	76.3	76.3	78.2	48	55.1	0	1	112	0.00	29.921 
00:20	76.1	76.1	78.1	48	55.0	0	0	---	0.00	29.921 
00:25	76.0	76.0	78.0	48	54.9	0	1	112	0.00	29.921 
00:30	76.0	76.0	78.0	48	54.9	0	0	---	0.00	29.924 
00:35	75.8	75.8	78.0	49	55.3	0	0	---	0.00	29.924 
00:40	75.8	75.8	78.0	49	55.3	0	1	112	0.00	29.924 
00:45	75.6	75.6	77.9	49	55.1	0	1	112	0.00	29.921 
00:50	75.6	75.6	77.9	49	55.1	0	1	112	0.00	29.921 
00:55	75.6	75.6	77.9	49	55.1	0	1	112	0.00	29.921 
01:00	75.6	75.6	77.9	49	55.1	0	1	112	0.00	29.918 
01:05	75.6	75.6	77.9	49	55.1	0	1	112	0.00	29.918 
01:10	75.6	75.6	77.9	49	55.1	0	2	112	0.00	29.918 
01:15	75.8	75.8	78.0	49	55.3	0	1	112	0.00	29.914 
01:20	75.8	75.8	78.0	49	55.3	0	1	112	0.00	29.914 
01:25	75.8	75.8	78.0	49	55.3	0	2	112	0.00	29.914 
01:30	75.8	75.8	78.0	49	55.3	0	3	112	0.00	29.911 
01:35	75.8	75.8	78.0	49	55.3	0	1	112	0.00	29.911 
01:40	75.8	75.8	78.0	49	55.3	0	1	112	0.00	29.911 
01:45	75.8	75.8	78.0	50	55.8	0	1	112	0.00	29.904 
01:50	75.6	75.6	77.9	50	55.6	0	1	112	0.00	29.904 
01:55	75.6	75.6	77.9	50	55.6	0	1	112	0.00	29.904 
02:00	75.4	75.4	77.8	50	55.4	0	1	112	0.00	29.904 
02:05	75.4	75.4	77.8	50	55.4	0	1	112	0.00	29.904 
02:10	75.3	75.3	77.7	50	55.4	0	1	112	0.00	29.904 
02:15	75.3	75.3	77.7	51	55.9	0	1	112	0.00	29.902 
02:20	75.1	75.1	77.7	51	55.7	0	0	---	0.00	29.902 
02:25	74.9	74.9	74.9	51	55.5	0	1	112	0.00	29.902 
02:30	74.9	74.9	74.9	51	55.5	0	0	---	0.00	29.901 
02:35	74.7	74.7	74.7	51	55.4	0	0	---	0.00	29.901 
02:40	74.7	74.7	74.7	52	55.9	0	0	---	0.00	29.901 
02:45	74.6	74.6	74.6	52	55.8	0	0	---	0.00	29.901 
02:50	74.6	74.6	74.6	52	55.8	0	0	---	0.00	29.901 
02:55	74.4	74.4	74.4	52	55.6	0	1	112	0.00	29.901 
03:00	74.4	74.4	74.4	52	55.6	0	0	---	0.00	29.903 
03:05	74.4	74.4	74.4	52	55.6	0	0	---	0.00	29.903 
03:10	74.4	74.4	74.4	53	56.1	0	0	---	0.00	29.903 
03:15	74.2	74.2	74.2	53	56.0	0	0	---	0.00	29.903 
03:20	74.0	74.0	74.0	53	55.8	0	0	---	0.00	29.903 
03:25	74.0	74.0	74.0	53	55.8	0	0	---	0.00	29.903 
03:30	73.9	73.9	73.9	53	55.7	0	0	---	0.00	29.904 
03:35	73.9	73.9	73.9	54	56.2	0	0	---	0.00	29.904 
03:40	73.9	73.9	73.9	54	56.2	0	0	---	0.00	29.904 
03:45	73.9	73.9	73.9	54	56.2	0	0	---	0.00	29.904 
03:50	73.9	73.9	73.9	54	56.2	0	0	---	0.00	29.904 
03:55	73.7	73.7	73.7	54	56.0	0	0	---	0.00	29.904 
04:00	73.5	73.5	73.5	55	56.3	0	0	---	0.00	29.902 
04:05	73.5	73.5	73.5	55	56.3	0	0	---	0.00	29.902 
04:10	73.3	73.3	73.3	56	56.6	0	0	---	0.00	29.902 
04:15	73.3	73.3	73.3	56	56.6	0	1	112	0.00	29.903 
04:20	73.3	73.3	73.3	56	56.6	0	1	112	0.00	29.903 
04:25	73.5	73.5	73.5	56	56.8	0	1	112	0.00	29.903 
04:30	73.7	73.7	73.7	56	57.0	0	2	112	0.00	29.900 
04:35	73.9	73.9	73.9	57	57.7	0	2	112	0.00	29.900 
04:40	73.9	73.9	73.9	58	58.2	0	1	112	0.00	29.900 
04:45	73.7	73.7	73.7	61	59.4	0	0	---	0.00	29.902 
04:50	73.2	73.2	73.2	63	59.8	0	0	---	0.00	29.902 
04:55	72.8	72.8	72.8	64	59.9	0	1	112	0.00	29.902 
05:00	72.5	72.5	72.5	67	60.9	0	0	---	0.00	29.905 
05:05	72.1	72.1	72.1	68	60.9	0	1	112	0.00	29.905 
05:10	71.6	71.6	71.6	71	61.7	0	0	---	0.01	29.905 
05:15	71.1	71.1	71.1	72	61.6	0	0	---	0.00	29.910 
05:20	70.6	70.6	70.6	74	61.9	0	0	---	0.00	29.910 
05:25	70.1	70.1	70.1	75	61.8	0	0	---	0.00	29.910 
05:30	69.8	69.8	69.8	77	62.3	0	0	---	0.00	29.911 
05:35	69.6	69.6	69.6	77	62.1	0	0	---	0.00	29.911 
05:40	69.3	69.3	69.3	78	62.1	0	0	---	0.00	29.911 
05:45	69.1	69.1	69.1	78	61.9	0	0	---	0.00	29.912 
05:50	69.1	69.1	69.1	79	62.3	0	0	---	0.00	29.912 
05:55	69.3	69.3	69.3	79	62.5	0	1	112	0.00	29.912 
06:00	69.3	69.3	69.3	79	62.5	0	0	---	0.00	29.916 
06:05	69.4	69.4	69.4	78	62.2	0	1	112	0.00	29.916 
06:10	69.4	69.4	69.4	78	62.2	0	1	112	0.00	29.916 
06:15	69.6	69.6	69.6	77	62.1	0	2	112	0.00	29.921 
06:20	69.9	69.9	69.9	76	62.0	0	2	112	0.00	29.921 
06:25	70.1	70.1	70.1	76	62.2	0	2	112	0.00	29.921 
06:30	70.4	70.4	70.4	76	62.5	0	1	112	0.00	29.924 
06:35	70.6	70.6	70.6	75	62.3	0	1	112	0.00	29.924 
06:40	70.8	70.8	70.8	75	62.5	0	1	112	0.00	29.924 
06:45	70.8	70.8	70.8	75	62.5	1	2	135	0.00	29.923 
06:50	70.9	70.9	70.9	75	62.6	0	3	112	0.00	29.923 
06:55	70.9	70.9	70.9	76	62.9	0	3	112	0.00	29.923 
07:00	70.9	70.9	70.9	76	62.9	0	2	112	0.00	29.923 
07:05	70.9	70.9	70.9	77	63.3	0	1	112	0.00	29.923 
07:10	70.8	70.8	70.8	77	63.2	0	1	112	0.00	29.923 
07:15	70.8	70.8	70.8	78	63.6	0	1	112	0.00	29.924 
07:20	70.8	70.8	70.8	79	64.0	0	1	112	0.00	29.924 
07:25	70.8	70.8	70.8	79	64.0	0	2	112	0.00	29.924 
07:30	70.8	70.8	70.8	80	64.3	0	2	112	0.00	29.924 
07:35	70.8	70.8	70.8	81	64.7	0	2	112	0.00	29.924 
07:40	70.6	70.6	70.6	83	65.2	1	3	90	0.00	29.924 
07:45	70.4	70.4	70.4	84	65.3	0	3	90	0.00	29.923 
07:50	70.4	70.4	70.4	84	65.3	0	1	90	0.00	29.923 
07:55	70.4	70.4	70.4	85	65.7	0	2	90	0.00	29.923 
08:00	70.4	70.4	70.4	85	65.7	0	2	90	0.00	29.923 
08:05	70.4	70.4	70.4	86	66.0	0	2	112	0.00	29.923 
08:10	70.4	70.4	70.4	86	66.0	0	2	112	0.00	29.923 
08:15	70.4	70.4	70.4	86	66.0	0	2	112	0.00	29.926 
08:20	70.4	70.4	70.4	87	66.3	1	3	112	0.00	29.926 
08:25	70.4	70.4	70.4	87	66.3	0	1	90	0.00	29.926 
08:30	70.6	70.6	70.6	87	66.5	0	2	90	0.00	29.921 
08:35	70.6	70.6	70.6	87	66.5	1	4	90	0.00	29.921 
08:40	70.8	70.8	70.8	87	66.7	1	3	90	0.00	29.921 
08:45	70.8	70.8	70.8	87	66.7	0	3	90	0.00	29.923 
08:50	70.8	70.8	70.8	86	66.4	1	3	22	0.00	29.923 
08:55	70.9	70.9	70.9	86	66.5	1	3	248	0.00	29.923 
09:00	70.9	70.9	70.9	86	66.5	0	2	90	0.00	29.923 
09:05	70.9	70.9	70.9	86	66.5	1	3	90	0.00	29.923 
09:10	70.9	70.9	70.9	85	66.2	1	4	90	0.00	29.923 
09:15	70.9	70.9	70.9	85	66.2	1	6	112	0.00	29.928 
09:20	70.9	70.9	70.9	85	66.2	1	2	112	0.00	29.928 
09:25	71.1	71.1	71.1	84	66.0	1	4	68	0.00	29.928 
09:30	71.3	71.3	71.3	84	66.2	1	3	68	0.00	29.928 
09:35	71.5	71.5	71.5	84	66.4	1	3	68	0.00	29.928 
09:40	71.5	71.5	71.5	84	66.4	1	4	90	0.00	29.928 
09:45	71.5	71.5	71.5	84	66.4	1	2	90	0.00	29.928 
09:50	71.6	71.6	71.6	84	66.5	1	2	90	0.00	29.928 
09:55	71.6	71.6	71.6	84	66.5	1	2	90	0.00	29.928 
10:00	71.6	71.6	71.6	84	66.5	1	4	90	0.00	29.927 
10:05	71.5	71.5	71.5	83	66.1	1	3	68	0.00	29.927 
10:10	71.5	71.5	71.5	83	66.1	2	4	90	0.00	29.927 
10:15	71.3	71.3	71.3	83	65.9	1	2	90	0.00	29.930 
10:20	71.1	71.1	71.1	83	65.7	0	2	90	0.00	29.930 
10:25	71.1	71.1	71.1	83	65.7	1	3	90	0.00	29.930 
10:30	71.1	71.1	71.1	83	65.7	1	3	90	0.00	29.930 
10:35	71.3	71.3	71.3	84	66.2	0	1	90	0.00	29.930 
10:40	71.3	71.3	71.3	83	65.9	0	2	90	0.00	29.930 
10:45	71.6	71.6	71.6	83	66.2	0	1	90	0.00	29.928 
10:50	72.0	72.0	72.0	82	66.2	0	3	90	0.00	29.928 
10:55	72.1	72.1	72.1	82	66.3	1	3	90	0.00	29.928 
11:00	72.5	72.5	72.5	81	66.3	0	3	90	0.00	29.924 
11:05	72.8	72.8	72.8	80	66.3	1	3	90	0.00	29.924 
11:10	73.0	73.0	73.0	80	66.5	1	3	90	0.00	29.924 
11:15	73.2	73.2	73.2	79	66.3	1	2	90	0.00	29.918 
11:20	73.2	73.2	73.2	79	66.3	1	3	90	0.00	29.918 
11:25	73.3	73.3	73.3	79	66.4	1	3	90	0.00	29.918 
11:30	73.7	73.7	73.7	79	66.8	0	2	90	0.00	29.914 
11:35	74.2	74.2	74.2	79	67.3	0	1	90	0.00	29.914 
11:40	74.4	74.4	74.4	77	66.7	1	3	90	0.00	29.914 
11:45	74.6	74.6	74.6	77	66.9	1	4	90	0.00	29.912 
11:50	74.4	74.4	74.4	77	66.7	1	4	90	0.00	29.912 
11:55	74.6	74.6	74.6	77	66.9	1	3	90	0.00	29.912 
12:00	74.6	74.6	74.6	77	66.9	1	3	292	0.00	29.911 
12:05	74.7	74.7	74.7	77	67.0	0	2	292	0.00	29.911 
12:10	75.1	75.1	76.2	76	67.0	1	4	315	0.00	29.911 
12:15	75.4	75.4	76.6	75	66.9	1	3	315	0.00	29.912 
12:20	76.0	76.0	77.4	74	67.1	1	4	90	0.00	29.912 
12:25	76.0	76.0	77.4	74	67.1	1	4	292	0.00	29.912 
12:30	76.0	76.0	77.4	74	67.1	0	3	292	0.00	29.906 
12:35	76.0	76.0	77.4	74	67.1	1	3	22	0.00	29.906 
12:40	76.1	76.1	77.5	74	67.2	1	3	68	0.00	29.906 
12:45	76.7	76.7	78.4	72	67.0	1	4	270	0.00	29.897 
12:50	77.0	77.0	78.8	71	66.9	1	3	270	0.00	29.897 
12:55	77.6	77.6	79.5	71	67.4	1	2	270	0.00	29.897 
13:00	78.3	78.3	80.4	69	67.3	1	5	270	0.00	29.895 
13:05	79.2	79.2	81.5	68	67.7	1	4	90	0.00	29.895 
13:10	79.6	79.6	81.9	66	67.2	2	6	248	0.00	29.895 
13:15	79.8	79.8	82.1	65	67.0	1	3	158	0.00	29.894 
13:20	79.4	79.4	81.7	67	67.5	2	4	68	0.00	29.894 
13:25	79.2	79.2	81.5	67	67.3	1	3	90	0.00	29.894 
13:30	78.8	78.8	81.0	68	67.3	1	3	90	0.00	29.889 
13:35	79.0	79.0	81.3	68	67.5	1	3	112	0.00	29.889 
13:40	79.4	79.4	81.6	66	67.0	1	5	90	0.00	29.889 
13:45	79.8	79.8	82.0	64	66.5	0	3	315	0.00	29.881 
13:50	80.1	80.1	82.3	63	66.3	1	4	315	0.00	29.881 
13:55	81.1	81.1	83.8	64	67.7	1	4	0	0.00	29.881 
14:00	81.8	81.8	84.1	60	66.5	1	4	270	0.00	29.876 
14:05	81.8	81.8	84.3	61	67.0	2	4	90	0.00	29.876 
14:10	81.8	81.8	83.8	58	65.6	1	4	90	0.00	29.876 
14:15	81.8	81.8	84.0	59	66.0	1	3	270	0.00	29.866 
14:20	81.8	81.8	84.0	59	66.0	2	5	135	0.00	29.866 
14:25	82.0	82.0	84.2	59	66.2	1	4	112	0.00	29.866 
14:30	82.2	82.2	84.5	59	66.4	2	7	90	0.00	29.856 
14:35	82.6	82.6	85.1	59	66.8	2	5	112	0.00	29.856 
14:40	82.6	82.6	84.9	58	66.3	3	9	90	0.00	29.856 
14:45	82.6	82.6	84.9	58	66.3	2	6	90	0.00	29.851 
14:50	83.4	83.4	85.4	55	65.5	2	6	68	0.00	29.851 
14:55	83.4	83.4	85.6	56	66.0	2	7	68	0.00	29.851 
15:00	83.0	83.0	85.3	57	66.2	2	5	90	0.00	29.848 
15:05	83.0	83.0	85.1	56	65.7	2	7	45	0.00	29.848 
15:10	83.0	83.0	85.3	57	66.2	3	9	90	0.00	29.848 
15:15	83.6	83.6	86.1	57	66.7	2	5	112	0.00	29.847 
15:20	83.8	83.8	85.7	54	65.3	2	6	90	0.00	29.847 
15:25	83.8	83.8	86.0	55	65.9	1	4	90	0.00	29.847 
15:30	83.6	83.6	85.7	55	65.7	2	6	90	0.00	29.845 
15:35	83.0	83.0	85.1	56	65.7	1	4	135	0.00	29.845 
15:40	82.2	82.2	84.2	57	65.4	2	4	68	0.00	29.845 
15:45	81.6	81.6	83.5	58	65.4	2	6	292	0.00	29.847 
15:50	81.1	81.1	83.2	60	65.9	2	6	90	0.00	29.847 
15:55	80.7	80.7	82.8	61	66.0	0	4	68	0.00	29.847 
16:00	80.5	80.5	82.5	61	65.8	0	2	68	0.00	29.851 
16:05	80.3	80.3	82.4	62	66.1	1	3	68	0.00	29.851 
16:10	80.3	80.3	82.4	62	66.1	1	4	112	0.00	29.851 
16:15	80.7	80.7	82.8	61	66.0	2	12	68	0.00	29.848 
16:20	81.1	81.1	83.3	61	66.4	1	4	90	0.00	29.848 
16:25	81.2	81.2	83.3	60	66.0	1	4	135	0.00	29.848 
16:30	81.1	81.1	83.6	63	67.3	2	5	248	0.00	29.847 
16:35	80.1	80.1	82.7	67	68.1	1	3	270	0.00	29.847 
16:40	79.9	79.9	82.9	71	69.6	0	2	270	0.00	29.847 
16:45	80.5	80.5	83.5	68	68.9	0	2	270	0.00	29.837 
16:50	80.7	80.7	83.5	66	68.3	0	1	270	0.00	29.837 
16:55	80.5	80.5	82.9	64	67.2	0	2	270	0.00	29.837 
17:00	80.3	80.3	82.5	63	66.5	1	2	270	0.00	29.835 
17:05	80.5	80.5	82.8	63	66.7	1	3	292	0.00	29.835 
17:10	81.1	81.1	83.2	60	65.9	1	4	225	0.00	29.835 
17:15	81.6	81.6	83.7	59	65.9	1	5	248	0.00	29.828 
17:20	82.6	82.6	84.9	58	66.3	1	5	270	0.00	29.828 
17:25	82.6	82.6	84.7	57	65.8	1	4	315	0.00	29.828 
17:30	82.4	82.4	84.4	57	65.6	1	4	270	0.00	29.825 
17:35	82.0	82.0	84.1	58	65.7	1	2	135	0.00	29.825 
17:40	81.8	81.8	83.8	58	65.6	1	5	315	0.00	29.825 
17:45	81.8	81.8	83.8	58	65.6	1	5	270	0.00	29.821 
17:50	82.4	82.4	84.4	57	65.6	1	4	270	0.00	29.821 
17:55	82.8	82.8	84.8	56	65.5	1	2	270	0.00	29.821 
18:00	83.0	83.0	85.1	56	65.7	1	3	270	0.00	29.819 
18:05	82.8	82.8	84.8	56	65.5	1	3	270	0.00	29.819 
18:10	83.2	83.2	85.3	56	65.8	1	4	270	0.00	29.819 
18:15	83.2	83.2	84.9	54	64.8	2	4	315	0.00	29.817 
18:20	83.2	83.2	84.9	54	64.8	0	2	248	0.00	29.817 
18:25	83.4	83.4	85.2	54	65.0	1	3	248	0.00	29.817 
18:30	83.8	83.8	85.7	54	65.3	1	3	248	0.00	29.811 
18:35	83.8	83.8	86.0	55	65.9	1	4	90	0.00	29.811 
18:40	83.4	83.4	85.6	56	66.0	1	5	90	0.00	29.811 
18:45	83.4	83.4	85.6	56	66.0	1	3	112	0.00	29.804 
18:50	83.2	83.2	85.6	57	66.4	1	5	90	0.00	29.804 
18:55	83.2	83.2	85.6	57	66.4	1	5	90	0.00	29.804 
19:00	82.8	82.8	85.0	57	66.0	2	5	112	0.00	29.804 
19:05	82.6	82.6	84.9	58	66.3	0	2	112	0.00	29.804 
19:10	82.4	82.4	84.6	58	66.1	0	2	112	0.00	29.804 
19:15	82.2	82.2	84.3	58	65.9	0	3	112	0.00	29.808 
19:20	82.2	82.2	84.3	58	65.9	0	3	112	0.00	29.808 
19:25	82.0	82.0	84.1	58	65.7	1	3	248	0.00	29.808 
19:30	81.6	81.6	83.5	58	65.4	0	1	248	0.00	29.810 
19:35	81.6	81.6	83.7	59	65.9	0	2	248	0.00	29.810 
19:40	81.6	81.6	83.7	59	65.9	1	4	292	0.00	29.810 
19:45	81.8	81.8	84.0	59	66.0	0	2	292	0.00	29.812 
19:50	82.0	82.0	84.2	59	66.2	1	2	292	0.00	29.812 
19:55	82.2	82.2	84.5	59	66.4	0	2	292	0.00	29.812 
20:00	82.2	82.2	84.5	59	66.4	1	4	248	0.00	29.816 
20:05	82.0	82.0	84.4	60	66.7	1	3	248	0.00	29.816 
20:10	81.6	81.6	84.0	61	66.8	1	5	112	0.00	29.816 
20:15	81.4	81.4	83.8	61	66.6	0	2	90	0.00	29.812 
20:20	81.1	81.1	83.5	62	66.8	0	1	90	0.00	29.812 
20:25	80.7	80.7	83.1	63	66.9	0	3	90	0.00	29.812 
20:30	80.3	80.3	82.5	63	66.5	0	2	90	0.00	29.813 
20:35	80.1	80.1	82.4	64	66.8	0	1	68	0.00	29.813 
20:40	79.9	79.9	82.2	65	67.1	0	2	68	0.00	29.813 
20:45	79.6	79.6	81.8	65	66.8	0	1	68	0.00	29.816 
20:50	79.4	79.4	81.6	66	67.0	1	3	68	0.00	29.816 
20:55	79.2	79.2	81.4	66	66.8	0	1	68	0.00	29.816 
21:00	79.2	79.2	81.4	66	66.8	0	0	---	0.00	29.817 
21:05	78.8	78.8	80.9	66	66.5	0	1	68	0.00	29.817 
21:10	78.6	78.6	80.7	67	66.7	0	1	68	0.00	29.817 
21:15	78.5	78.5	80.5	67	66.6	0	1	68	0.00	29.821 
21:20	78.3	78.3	80.3	68	66.8	0	4	90	0.00	29.821 
21:25	78.1	78.1	80.1	68	66.7	0	1	90	0.00	29.821 
21:30	77.9	77.9	79.9	69	66.9	0	0	---	0.00	29.820 
21:35	77.7	77.7	79.6	69	66.7	0	1	90	0.00	29.820 
21:40	77.6	77.6	79.5	69	66.6	0	1	90	0.00	29.820 
21:45	77.2	77.2	79.0	70	66.6	0	0	---	0.00	29.822 
21:50	77.0	77.0	78.8	71	66.9	0	0	---	0.00	29.822 
21:55	76.8	76.8	78.5	72	67.1	0	0	---	0.00	29.822 
22:00	76.7	76.7	78.4	72	67.0	0	0	---	0.00	29.823 
22:05	76.7	76.7	78.4	72	67.0	0	0	---	0.00	29.823 
22:10	76.5	76.5	78.1	73	67.2	0	0	---	0.00	29.823 
22:15	76.3	76.3	77.8	73	67.0	0	0	---	0.00	29.822 
22:20	76.1	76.1	77.5	74	67.2	0	0	---	0.00	29.822 
22:25	76.0	76.0	77.4	74	67.1	0	1	90	0.00	29.822 
22:30	76.0	76.0	77.4	74	67.1	0	0	---	0.00	29.823 
22:35	75.8	75.8	77.1	75	67.3	0	0	---	0.00	29.823 
22:40	75.6	75.6	76.9	75	67.1	0	0	---	0.00	29.823 
22:45	75.6	75.6	76.8	76	67.5	0	0	---	0.00	29.823 
22:50	75.4	75.4	76.5	76	67.3	0	0	---	0.00	29.823 
22:55	75.4	75.4	76.5	76	67.3	0	2	90	0.00	29.823 
23:00	75.4	75.4	76.5	76	67.3	0	0	---	0.00	29.825 
23:05	75.4	75.4	76.5	76	67.3	0	1	90	0.00	29.825 
23:10	75.4	75.4	76.5	76	67.3	0	0	---	0.00	29.825 
23:15	75.4	75.4	76.5	76	67.3	0	2	90	0.00	29.821 
23:20	75.4	75.4	76.5	76	67.3	0	3	90	0.00	29.821 
23:25	75.4	75.4	76.6	75	66.9	0	3	315	0.00	29.821 
23:30	75.4	75.4	76.7	74	66.5	0	1	315	0.00	29.824 
23:35	75.3	75.3	76.6	74	66.4	0	1	315	0.00	29.824 
23:40	75.3	75.3	76.6	74	66.4	0	1	315	0.00	29.824 
23:45	75.1	75.1	76.3	75	66.6	0	1	315	0.00	29.833 
23:50	74.7	74.7	74.7	75	66.2	0	1	315	0.00	29.833 
23:55	74.6	74.6	74.6	75	66.1	0	1	315	0.00	29.833 

CoCoRaHS
IN-AL-39
A2 Web Hosting
Creative Commons License
GoDaddy
search engine by freefind advanced

loaded 2018-11-15 18:17:47 • last modified 2010-11-18 10:43:29
Privacy PolicyDisclaimer
• wx.awcolley.com is powered by PmWiki v.2002016 •
• all content (unless otherwise noted) © 2018 A W Colley